createdAt,value
2023-04-03T00:03:36.851Z,0.82
2023-04-03T00:08:31.597Z,0.68
2023-04-03T00:13:23.548Z,0.60
2023-04-03T00:18:15.210Z,0.60
2023-04-03T00:23:07.105Z,0.57
2023-04-03T00:27:58.781Z,0.80
2023-04-03T00:32:51.884Z,0.68
2023-04-03T00:37:44.542Z,0.50
2023-04-03T00:42:37.881Z,0.70
2023-04-03T00:47:31.897Z,0.63
2023-04-03T00:52:27.843Z,0.70
2023-04-03T00:57:19.820Z,0.60
2023-04-03T01:02:11.890Z,0.88
2023-04-03T01:07:12.041Z,0.70
2023-04-03T01:12:17.862Z,0.80
2023-04-03T01:17:38.891Z,0.80
2023-04-03T01:22:51.512Z,0.65
2023-04-03T01:27:43.252Z,0.80
2023-04-03T01:32:34.917Z,1.05
2023-04-03T01:37:26.572Z,0.82
2023-04-03T01:42:18.372Z,0.80
2023-04-03T01:47:10.079Z,1.10
2023-04-03T01:52:01.778Z,1.48
2023-04-03T01:56:53.507Z,1.05
2023-04-03T02:01:46.320Z,0.93
2023-04-03T02:06:38.289Z,0.57
2023-04-03T02:11:29.862Z,0.73
2023-04-03T02:16:21.638Z,0.95
2023-04-03T02:21:13.252Z,0.70
2023-04-03T02:26:10.576Z,0.70
2023-04-03T02:31:02.534Z,1.00
2023-04-03T02:35:56.388Z,0.85
2023-04-03T02:40:48.387Z,0.90
2023-04-03T02:45:40.049Z,0.73
2023-04-03T02:50:31.701Z,0.80
2023-04-03T02:55:23.342Z,0.80
2023-04-03T03:00:15.649Z,0.90
2023-04-03T03:05:08.462Z,0.90
2023-04-03T03:10:00.410Z,0.70
2023-04-03T03:14:52.045Z,0.90
2023-04-03T03:19:43.981Z,0.90
2023-04-03T03:24:35.679Z,0.88
2023-04-03T03:29:27.356Z,0.95
2023-04-03T03:34:19.012Z,1.25
2023-04-03T03:39:11.291Z,1.30
2023-04-03T03:44:02.969Z,1.42
2023-04-03T03:48:54.644Z,1.48
2023-04-03T03:53:46.690Z,0.80
2023-04-03T03:58:38.345Z,0.93
2023-04-03T04:03:30.485Z,0.90
2023-04-03T04:08:22.162Z,1.65
2023-04-03T04:13:13.804Z,0.80
2023-04-03T04:18:05.777Z,1.23
2023-04-03T04:22:57.396Z,0.90
2023-04-03T04:27:49.079Z,1.15
2023-04-03T04:32:40.843Z,0.85
2023-04-03T04:37:32.703Z,1.15
2023-04-03T04:42:24.422Z,0.80
2023-04-03T04:47:16.029Z,0.80
2023-04-03T04:52:07.757Z,1.00
2023-04-03T04:56:59.537Z,0.80
2023-04-03T05:01:51.264Z,1.10
2023-04-03T05:06:43.005Z,1.10
2023-04-03T05:11:34.736Z,1.30
2023-04-03T05:16:26.628Z,1.05
2023-04-03T05:21:19.451Z,0.85
2023-04-03T05:26:11.087Z,1.00
2023-04-03T05:31:02.849Z,0.82
2023-04-03T05:35:55.832Z,1.00
2023-04-03T05:40:47.789Z,1.17
2023-04-03T05:45:39.662Z,0.80
2023-04-03T05:50:31.434Z,0.95
2023-04-03T05:55:23.078Z,1.20
2023-04-03T06:00:18.748Z,1.17
2023-04-03T06:05:12.696Z,1.80
2023-04-03T06:10:05.294Z,1.02
2023-04-03T06:14:57.001Z,1.30
2023-04-03T06:19:48.875Z,1.30
2023-04-03T06:24:41.211Z,1.25
2023-04-03T06:29:32.925Z,1.00
2023-04-03T06:34:24.598Z,1.15
2023-04-03T06:39:19.253Z,1.50
2023-04-03T06:44:12.302Z,1.58
2023-04-03T06:49:04.690Z,1.50
2023-04-03T06:53:58.760Z,1.10
2023-04-03T06:58:51.990Z,1.40
2023-04-03T07:03:43.638Z,1.45
2023-04-03T07:08:35.936Z,1.17
2023-04-03T07:13:28.038Z,1.50
2023-04-03T07:18:20.173Z,1.17
2023-04-03T07:23:12.026Z,1.20
2023-04-03T07:28:03.627Z,0.90
2023-04-03T07:32:55.296Z,1.00
2023-04-03T07:37:47.339Z,1.33
2023-04-03T07:42:39.343Z,0.82
2023-04-03T07:47:32.381Z,0.70
2023-04-03T07:52:25.048Z,1.23
2023-04-03T07:57:17.722Z,0.63
2023-04-03T08:02:13.550Z,0.63
2023-04-03T08:07:05.941Z,1.13
2023-04-03T08:11:57.630Z,0.68
2023-04-03T08:16:49.881Z,0.50
2023-04-03T08:21:42.586Z,0.55
2023-04-03T08:26:34.397Z,0.52
2023-04-03T08:31:26.077Z,0.70
2023-04-03T08:36:24.041Z,0.80
2023-04-03T08:41:40.935Z,0.60
2023-04-03T08:46:59.447Z,0.63
2023-04-03T08:51:52.559Z,0.75
2023-04-03T08:56:44.332Z,0.65
2023-04-03T09:01:39.473Z,1.00
2023-04-03T09:06:34.044Z,0.50
2023-04-03T09:11:48.214Z,0.50
2023-04-03T09:16:48.958Z,1.20
2023-04-03T09:21:44.040Z,0.60
2023-04-03T09:26:41.473Z,0.60
2023-04-03T09:31:44.819Z,0.50
2023-04-03T09:36:39.142Z,0.40
2023-04-03T09:41:30.753Z,0.60
2023-04-03T09:46:33.998Z,0.57
2023-04-03T09:51:29.960Z,0.40
2023-04-03T09:56:26.829Z,0.45
2023-04-03T10:01:39.256Z,0.60
2023-04-03T10:06:33.414Z,0.95
2023-04-03T10:11:26.300Z,0.63
2023-04-03T10:16:22.500Z,0.60
2023-04-03T10:21:47.024Z,0.50
2023-04-03T10:26:46.816Z,0.63
2023-04-03T10:31:49.581Z,0.68
2023-04-03T10:36:47.374Z,0.85
2023-04-03T10:42:15.913Z,0.43
2023-04-03T10:47:22.934Z,0.60
2023-04-03T10:52:39.963Z,0.50
2023-04-03T10:57:33.009Z,0.40
2023-04-03T11:02:29.528Z,0.73
2023-04-03T11:07:33.913Z,0.50
2023-04-03T11:12:39.776Z,0.65
2023-04-03T11:17:39.279Z,1.10
2023-04-03T11:22:38.727Z,0.50
2023-04-03T11:27:40.409Z,0.40
2023-04-03T11:32:38.166Z,0.45
2023-04-03T11:37:30.485Z,0.40
2023-04-03T11:42:31.723Z,0.50
2023-04-03T11:47:49.510Z,0.40
2023-04-03T11:52:44.342Z,0.50
2023-04-03T11:58:02.979Z,0.63
2023-04-03T12:02:55.214Z,0.50
2023-04-03T12:08:25.477Z,0.50
2023-04-03T12:13:17.655Z,0.40
2023-04-03T12:18:43.700Z,0.40
2023-04-03T12:23:39.520Z,0.40
2023-04-03T12:28:37.317Z,0.50
2023-04-03T12:33:42.426Z,0.40
2023-04-03T12:39:02.558Z,0.50
2023-04-03T12:44:38.867Z,0.30
2023-04-03T12:49:30.433Z,0.50
2023-04-03T12:54:28.351Z,0.40
2023-04-03T13:04:13.752Z,0.45
2023-04-03T13:09:07.615Z,0.60
2023-04-03T13:14:03.135Z,0.50
2023-04-03T13:18:56.001Z,0.60
2023-04-03T13:23:53.370Z,0.43
2023-04-03T13:28:52.449Z,0.47
2023-04-03T13:34:25.263Z,0.50
2023-04-03T13:39:16.824Z,0.55
2023-04-03T13:44:23.280Z,0.38
2023-04-03T13:49:28.228Z,0.50
2023-04-03T13:54:25.778Z,0.47
2023-04-03T13:59:17.467Z,0.60
2023-04-03T14:04:28.968Z,0.60
2023-04-03T14:09:22.821Z,0.60
2023-04-03T14:14:19.027Z,0.57
2023-04-03T14:19:26.894Z,0.60
2023-04-03T14:24:18.812Z,0.43
2023-04-03T14:29:12.338Z,0.60
2023-04-03T14:34:04.061Z,0.50
2023-04-03T14:38:56.524Z,0.90
2023-04-03T14:43:48.678Z,0.63
2023-04-03T14:48:40.448Z,0.60
2023-04-03T14:53:38.959Z,0.50
2023-04-03T14:58:31.338Z,0.60
2023-04-03T15:03:24.442Z,0.90
2023-04-03T15:08:22.620Z,0.75
2023-04-03T15:18:06.734Z,0.50
2023-04-03T15:22:58.537Z,0.65
2023-04-03T15:27:50.384Z,0.60
2023-04-03T15:32:42.014Z,0.70
2023-04-03T15:37:33.847Z,0.57
2023-04-03T15:42:25.691Z,0.70
2023-04-03T15:47:17.881Z,0.55
2023-04-03T15:52:09.641Z,0.60
2023-04-03T15:57:01.402Z,0.50
2023-04-03T16:01:53.922Z,0.60
2023-04-03T16:06:45.763Z,0.50
2023-04-03T16:11:40.925Z,0.50
2023-04-03T16:16:32.864Z,0.50
2023-04-03T16:21:24.989Z,0.60
2023-04-03T16:26:18.384Z,0.50
2023-04-03T16:31:10.783Z,0.57
2023-04-03T16:36:02.808Z,0.52
2023-04-03T16:40:57.901Z,0.70
2023-04-03T16:45:49.601Z,0.50
2023-04-03T16:50:41.225Z,0.60
2023-04-03T16:55:32.890Z,0.60
2023-04-03T17:00:24.501Z,0.50
2023-04-03T17:05:16.325Z,0.60
2023-04-03T17:10:08.723Z,0.50
2023-04-03T17:15:00.535Z,0.70
2023-04-03T17:19:52.279Z,0.85
2023-04-03T17:24:44.716Z,0.50
2023-04-03T17:29:36.323Z,0.60
2023-04-03T17:34:28.142Z,0.70
2023-04-03T17:39:19.803Z,0.98
2023-04-03T17:44:11.969Z,0.60
2023-04-03T17:49:04.753Z,0.88
2023-04-03T17:53:56.578Z,1.25
2023-04-03T17:58:49.075Z,0.77
2023-04-03T18:03:41.392Z,0.60
2023-04-03T18:08:37.693Z,0.80
2023-04-03T18:13:29.477Z,1.17
2023-04-03T18:18:21.249Z,0.82
2023-04-03T18:23:13.082Z,0.90
2023-04-03T18:28:06.834Z,0.70
2023-04-03T18:32:58.480Z,0.80
2023-04-03T18:37:50.804Z,0.80
2023-04-03T18:42:43.227Z,0.80
2023-04-03T18:47:36.995Z,0.70
2023-04-03T18:52:28.729Z,1.08
2023-04-03T18:57:20.405Z,1.25
2023-04-03T19:02:13.269Z,1.42
2023-04-03T19:07:06.603Z,1.23
2023-04-03T19:11:58.450Z,3.78
2023-04-03T19:16:50.067Z,2.08
2023-04-03T19:21:42.235Z,1.63
2023-04-03T19:26:34.012Z,0.80
2023-04-03T19:31:25.715Z,1.05
2023-04-03T19:36:19.016Z,0.90
2023-04-03T19:41:18.996Z,0.82
2023-04-03T19:46:10.729Z,0.80
2023-04-03T19:51:04.834Z,1.00
2023-04-03T19:55:57.640Z,0.80
2023-04-03T20:00:49.656Z,0.93
2023-04-03T20:05:41.623Z,1.50
2023-04-03T20:10:33.745Z,1.10
2023-04-03T20:15:26.513Z,0.80
2023-04-03T20:20:19.596Z,0.90
2023-04-03T20:25:15.356Z,1.17
2023-04-03T20:30:13.246Z,0.70
2023-04-03T20:35:05.257Z,0.85
2023-04-03T20:39:56.893Z,0.90
2023-04-03T20:44:48.505Z,1.20
2023-04-03T20:49:43.548Z,1.00
2023-04-03T20:54:35.173Z,1.20
2023-04-03T20:59:26.791Z,0.93
2023-04-03T21:04:27.684Z,1.10
2023-04-03T21:09:57.012Z,0.82
2023-04-03T21:15:26.446Z,1.10
2023-04-03T21:20:18.015Z,1.52
2023-04-03T21:25:09.827Z,1.38
2023-04-03T21:30:05.541Z,1.73
2023-04-03T21:34:58.150Z,1.25
2023-04-03T21:39:50.041Z,1.52
2023-04-03T21:44:41.751Z,1.33
2023-04-03T21:49:33.965Z,2.20
2023-04-03T21:54:25.710Z,1.85
2023-04-03T21:59:17.443Z,1.52
2023-04-03T22:04:09.277Z,1.25
2023-04-03T22:09:01.023Z,1.58
2023-04-03T22:13:54.125Z,1.13
2023-04-03T22:18:45.929Z,1.25
2023-04-03T22:23:38.082Z,1.50
2023-04-03T22:28:32.080Z,1.65
2023-04-03T22:33:24.021Z,1.75
2023-04-03T22:38:16.054Z,1.70
2023-04-03T22:43:07.946Z,2.65
2023-04-03T22:48:00.306Z,2.70
2023-04-03T22:52:51.967Z,2.92
2023-04-03T22:57:49.680Z,2.80
2023-04-03T23:02:42.040Z,2.50
2023-04-03T23:07:34.047Z,2.50
2023-04-03T23:12:25.973Z,3.35
2023-04-03T23:17:17.577Z,2.95
2023-04-03T23:22:09.298Z,2.60
2023-04-03T23:27:01.484Z,2.70
2023-04-03T23:31:53.104Z,2.95
2023-04-03T23:36:44.786Z,3.55
2023-04-03T23:41:36.778Z,3.30
2023-04-03T23:46:28.519Z,2.63
2023-04-03T23:51:20.773Z,4.00
2023-04-03T23:56:13.331Z,2.85
